sensor_id;sensor_type;location;lat;lon;timestamp;pressure;altitude;pressure_sealevel;temperature;humidity
70902;BME280;58548;47.210;8.618;2023-02-02T00:01:30;95043.13;;;11.95;32.94
70902;BME280;58548;47.210;8.618;2023-02-02T00:03:57;94912.28;;;11.25;33.08
70902;BME280;58548;47.210;8.618;2023-02-02T00:06:25;95048.34;;;12.03;32.40
70902;BME280;58548;47.210;8.618;2023-02-02T00:08:52;94890.28;;;10.88;33.13
70902;BME280;58548;47.210;8.618;2023-02-02T00:11:25;95078.81;;;11.87;33.27
70902;BME280;58548;47.210;8.618;2023-02-02T00:13:53;94944.94;;;10.97;33.05
70902;BME280;58548;47.210;8.618;2023-02-02T00:18:51;95014.22;;;11.33;33.35
70902;BME280;58548;47.210;8.618;2023-02-02T00:21:20;95041.09;;;11.50;33.73
70902;BME280;58548;47.210;8.618;2023-02-02T00:23:50;95054.22;;;11.73;32.53
70902;BME280;58548;47.210;8.618;2023-02-02T00:26:20;95030.53;;;11.67;33.26
70902;BME280;58548;47.210;8.618;2023-02-02T00:28:46;95036.47;;;11.60;33.17
70902;BME280;58548;47.210;8.618;2023-02-02T00:31:12;95044.78;;;11.64;32.88
70902;BME280;58548;47.210;8.618;2023-02-02T00:33:44;94951.84;;;11.22;33.08
70902;BME280;58548;47.210;8.618;2023-02-02T00:36:12;94945.09;;;11.27;32.58
70902;BME280;58548;47.210;8.618;2023-02-02T00:38:41;95054.28;;;11.88;33.18
70902;BME280;58548;47.210;8.618;2023-02-02T00:41:07;94913.03;;;10.70;33.35
70902;BME280;58548;47.210;8.618;2023-02-02T00:43:34;95042.59;;;11.44;33.41
70902;BME280;58548;47.210;8.618;2023-02-02T00:46:00;94919.03;;;10.79;33.74
70902;BME280;58548;47.210;8.618;2023-02-02T00:48:26;95025.47;;;11.42;33.95
70902;BME280;58548;47.210;8.618;2023-02-02T00:50:52;94903.56;;;10.69;33.69
70902;BME280;58548;47.210;8.618;2023-02-02T00:53:19;94926.88;;;10.88;34.07
70902;BME280;58548;47.210;8.618;2023-02-02T00:55:45;95035.28;;;11.40;33.63
70902;BME280;58548;47.210;8.618;2023-02-02T00:58:13;95040.00;;;11.36;34.61
70902;BME280;58548;47.210;8.618;2023-02-02T01:00:41;94931.66;;;10.76;34.11
70902;BME280;58548;47.210;8.618;2023-02-02T01:03:09;94918.72;;;10.82;33.83
70902;BME280;58548;47.210;8.618;2023-02-02T01:05:38;94908.13;;;10.76;34.06
70902;BME280;58548;47.210;8.618;2023-02-02T01:08:04;95035.28;;;11.40;34.39
70902;BME280;58548;47.210;8.618;2023-02-02T01:10:32;95036.25;;;11.39;34.22
70902;BME280;58548;47.210;8.618;2023-02-02T01:12:58;94909.84;;;10.52;34.06
70902;BME280;58548;47.210;8.618;2023-02-02T01:15:24;94966.41;;;10.76;34.37
70902;BME280;58548;47.210;8.618;2023-02-02T01:17:50;94935.25;;;10.66;34.49
70902;BME280;58548;47.210;8.618;2023-02-02T01:20:19;95023.72;;;11.26;34.41
70902;BME280;58548;47.210;8.618;2023-02-02T01:22:48;95003.22;;;11.06;34.36
70902;BME280;58548;47.210;8.618;2023-02-02T01:25:17;95060.25;;;11.42;34.85
70902;BME280;58548;47.210;8.618;2023-02-02T01:27:43;94922.59;;;10.38;34.91
70902;BME280;58548;47.210;8.618;2023-02-02T01:30:09;94953.28;;;10.45;34.45
70902;BME280;58548;47.210;8.618;2023-02-02T01:32:35;95041.59;;;11.14;34.36
70902;BME280;58548;47.210;8.618;2023-02-02T01:35:06;94844.41;;;9.89;34.45
70902;BME280;58548;47.210;8.618;2023-02-02T01:37:35;95079.44;;;11.26;34.83
70902;BME280;58548;47.210;8.618;2023-02-02T01:40:01;94966.75;;;10.73;34.20
70902;BME280;58548;47.210;8.618;2023-02-02T01:42:27;95053.34;;;11.18;34.32
70902;BME280;58548;47.210;8.618;2023-02-02T01:47:31;95086.75;;;11.39;34.90
70902;BME280;58548;47.210;8.618;2023-02-02T01:50:02;95093.06;;;11.53;34.39
70902;BME280;58548;47.210;8.618;2023-02-02T01:52:31;95045.16;;;11.21;34.60
70902;BME280;58548;47.210;8.618;2023-02-02T01:55:09;95087.84;;;11.53;34.35
70902;BME280;58548;47.210;8.618;2023-02-02T02:00:07;94966.84;;;10.96;34.64
70902;BME280;58548;47.210;8.618;2023-02-02T02:02:39;94949.25;;;10.82;34.48
70902;BME280;58548;47.210;8.618;2023-02-02T02:05:07;95072.16;;;11.53;34.49
70902;BME280;58548;47.210;8.618;2023-02-02T02:07:34;95070.94;;;11.24;35.32
70902;BME280;58548;47.210;8.618;2023-02-02T02:10:00;94945.47;;;10.36;35.26
70902;BME280;58548;47.210;8.618;2023-02-02T02:12:28;94977.03;;;10.75;34.76
70902;BME280;58548;47.210;8.618;2023-02-02T02:14:56;94999.34;;;10.94;35.21
70902;BME280;58548;47.210;8.618;2023-02-02T02:20:41;95072.56;;;11.34;34.90
70902;BME280;58548;47.210;8.618;2023-02-02T02:24:01;95086.63;;;11.32;35.19
70902;BME280;58548;47.210;8.618;2023-02-02T02:32:21;95107.56;;;11.72;34.65
70902;BME280;58548;47.210;8.618;2023-02-02T02:38:15;95112.13;;;11.70;34.99
70902;BME280;58548;47.210;8.618;2023-02-02T02:41:20;95100.91;;;11.93;34.15
70902;BME280;58548;47.210;8.618;2023-02-02T02:43:51;95091.22;;;11.94;33.88
70902;BME280;58548;47.210;8.618;2023-02-02T02:46:24;94976.47;;;11.27;33.75
70902;BME280;58548;47.210;8.618;2023-02-02T02:48:56;95067.91;;;11.84;34.16
70902;BME280;58548;47.210;8.618;2023-02-02T02:51:50;95027.34;;;11.56;34.60
70902;BME280;58548;47.210;8.618;2023-02-02T02:54:38;95082.56;;;11.93;34.52
70902;BME280;58548;47.210;8.618;2023-02-02T02:57:45;95077.19;;;11.86;34.88
70902;BME280;58548;47.210;8.618;2023-02-02T03:03:04;95090.69;;;11.75;34.87
70902;BME280;58548;47.210;8.618;2023-02-02T03:05:51;94971.22;;;11.04;34.96
70902;BME280;58548;47.210;8.618;2023-02-02T03:08:37;95080.19;;;11.83;34.83
70902;BME280;58548;47.210;8.618;2023-02-02T03:11:10;94953.72;;;11.05;34.08
70902;BME280;58548;47.210;8.618;2023-02-02T03:13:39;95086.19;;;11.92;33.98
70902;BME280;58548;47.210;8.618;2023-02-02T03:16:07;95058.59;;;11.81;34.58
70902;BME280;58548;47.210;8.618;2023-02-02T03:18:35;95016.69;;;11.58;34.21
70902;BME280;58548;47.210;8.618;2023-02-02T03:21:04;95063.25;;;11.94;34.13
70902;BME280;58548;47.210;8.618;2023-02-02T03:23:34;95049.03;;;11.88;34.49
70902;BME280;58548;47.210;8.618;2023-02-02T03:26:03;95061.53;;;12.10;33.96
70902;BME280;58548;47.210;8.618;2023-02-02T03:28:31;95065.50;;;12.05;34.40
70902;BME280;58548;47.210;8.618;2023-02-02T03:30:59;95070.34;;;11.85;35.31
70902;BME280;58548;47.210;8.618;2023-02-02T03:33:29;95083.81;;;11.74;34.78
70902;BME280;58548;47.210;8.618;2023-02-02T03:35:59;95044.66;;;11.57;35.21
70902;BME280;58548;47.210;8.618;2023-02-02T03:38:28;94970.47;;;11.19;34.94
70902;BME280;58548;47.210;8.618;2023-02-02T03:40:57;94951.81;;;10.98;35.39
70902;BME280;58548;47.210;8.618;2023-02-02T03:43:25;95018.72;;;11.48;35.44
70902;BME280;58548;47.210;8.618;2023-02-02T03:45:58;94943.25;;;11.05;35.09
70902;BME280;58548;47.210;8.618;2023-02-02T03:48:25;95066.16;;;11.76;35.61
70902;BME280;58548;47.210;8.618;2023-02-02T03:50:51;95074.75;;;11.61;36.29
70902;BME280;58548;47.210;8.618;2023-02-02T03:53:17;95055.56;;;11.29;36.14
70902;BME280;58548;47.210;8.618;2023-02-02T03:55:47;95086.34;;;11.59;36.00
70902;BME280;58548;47.210;8.618;2023-02-02T03:58:18;95001.09;;;11.01;36.66
70902;BME280;58548;47.210;8.618;2023-02-02T04:00:46;95061.78;;;11.28;36.67
70902;BME280;58548;47.210;8.618;2023-02-02T04:03:12;95082.22;;;11.33;36.71
70902;BME280;58548;47.210;8.618;2023-02-02T04:05:40;94977.06;;;10.66;36.62
70902;BME280;58548;47.210;8.618;2023-02-02T04:08:09;95106.19;;;11.45;36.51
70902;BME280;58548;47.210;8.618;2023-02-02T04:10:37;95105.09;;;11.31;36.87
70902;BME280;58548;47.210;8.618;2023-02-02T04:13:07;95099.63;;;11.09;37.24
70902;BME280;58548;47.210;8.618;2023-02-02T04:15:33;94987.53;;;10.58;36.89
70902;BME280;58548;47.210;8.618;2023-02-02T04:17:59;95099.03;;;11.39;36.43
70902;BME280;58548;47.210;8.618;2023-02-02T04:20:24;95054.28;;;11.25;36.91
70902;BME280;58548;47.210;8.618;2023-02-02T04:22:53;95098.09;;;11.63;36.68
70902;BME280;58548;47.210;8.618;2023-02-02T04:25:19;95093.69;;;11.64;36.58
70902;BME280;58548;47.210;8.618;2023-02-02T04:27:45;95110.06;;;11.57;36.29
70902;BME280;58548;47.210;8.618;2023-02-02T04:30:14;94969.47;;;10.88;36.18
70902;BME280;58548;47.210;8.618;2023-02-02T04:32:39;94982.03;;;10.93;36.41
70902;BME280;58548;47.210;8.618;2023-02-02T04:35:06;95084.56;;;11.59;36.17
70902;BME280;58548;47.210;8.618;2023-02-02T04:37:32;95021.91;;;11.26;36.09
70902;BME280;58548;47.210;8.618;2023-02-02T04:40:03;94986.44;;;11.00;36.31
70902;BME280;58548;47.210;8.618;2023-02-02T04:42:34;94981.56;;;10.89;35.64
70902;BME280;58548;47.210;8.618;2023-02-02T04:45:00;95068.88;;;11.51;36.06
70902;BME280;58548;47.210;8.618;2023-02-02T04:47:26;94977.28;;;10.96;36.09
70902;BME280;58548;47.210;8.618;2023-02-02T04:49:55;95053.50;;;11.56;36.22
70902;BME280;58548;47.210;8.618;2023-02-02T04:52:27;94981.97;;;11.09;36.17
70902;BME280;58548;47.210;8.618;2023-02-02T04:54:53;95107.75;;;11.63;36.29
70902;BME280;58548;47.210;8.618;2023-02-02T04:57:19;95079.00;;;11.54;36.66
70902;BME280;58548;47.210;8.618;2023-02-02T04:59:47;94947.91;;;10.86;36.38
70902;BME280;58548;47.210;8.618;2023-02-02T05:02:16;95002.72;;;11.11;35.92
70902;BME280;58548;47.210;8.618;2023-02-02T05:04:44;94984.50;;;10.94;35.91
70902;BME280;58548;47.210;8.618;2023-02-02T05:07:13;95093.00;;;11.70;36.11
70902;BME280;58548;47.210;8.618;2023-02-02T05:09:38;94977.56;;;11.01;35.98
70902;BME280;58548;47.210;8.618;2023-02-02T05:12:09;95099.94;;;11.86;35.59
70902;BME280;58548;47.210;8.618;2023-02-02T05:14:35;95031.53;;;11.34;35.49
70902;BME280;58548;47.210;8.618;2023-02-02T05:17:01;95077.41;;;11.45;35.73
70902;BME280;58548;47.210;8.618;2023-02-02T05:19:27;94975.22;;;10.75;35.89
70902;BME280;58548;47.210;8.618;2023-02-02T05:21:57;94972.28;;;10.86;36.20
70902;BME280;58548;47.210;8.618;2023-02-02T05:24:25;94975.69;;;10.87;35.69
70902;BME280;58548;47.210;8.618;2023-02-02T05:26:55;95017.72;;;11.17;35.69
70902;BME280;58548;47.210;8.618;2023-02-02T05:29:26;95069.34;;;11.55;35.92
70902;BME280;58548;47.210;8.618;2023-02-02T05:31:54;95015.59;;;11.12;35.07
70902;BME280;58548;47.210;8.618;2023-02-02T05:34:20;95049.34;;;11.30;35.45
70902;BME280;58548;47.210;8.618;2023-02-02T05:36:48;95098.84;;;11.40;35.72
70902;BME280;58548;47.210;8.618;2023-02-02T05:39:16;95090.19;;;11.40;35.30
70902;BME280;58548;47.210;8.618;2023-02-02T05:41:42;94991.75;;;10.67;35.69
70902;BME280;58548;47.210;8.618;2023-02-02T05:44:11;94948.38;;;10.58;35.45
70902;BME280;58548;47.210;8.618;2023-02-02T05:46:40;95055.78;;;11.20;35.47
70902;BME280;58548;47.210;8.618;2023-02-02T05:49:12;95076.03;;;11.26;35.57
70902;BME280;58548;47.210;8.618;2023-02-02T05:51:44;95050.03;;;11.24;35.66
70902;BME280;58548;47.210;8.618;2023-02-02T05:54:11;94969.84;;;10.77;34.78
70902;BME280;58548;47.210;8.618;2023-02-02T05:56:39;95109.41;;;11.64;35.40
70902;BME280;58548;47.210;8.618;2023-02-02T05:59:06;95065.63;;;11.49;35.07
70902;BME280;58548;47.210;8.618;2023-02-02T06:01:33;95092.88;;;11.63;35.44
70902;BME280;58548;47.210;8.618;2023-02-02T06:04:01;94948.00;;;10.61;34.97
70902;BME280;58548;47.210;8.618;2023-02-02T06:06:32;95098.69;;;11.42;36.07
70902;BME280;58548;47.210;8.618;2023-02-02T06:09:03;95117.25;;;11.55;35.41
70902;BME280;58548;47.210;8.618;2023-02-02T06:11:29;94983.19;;;10.90;35.83
70902;BME280;58548;47.210;8.618;2023-02-02T06:13:59;94950.22;;;10.81;35.45
70902;BME280;58548;47.210;8.618;2023-02-02T06:16:25;95099.19;;;11.77;35.64
70902;BME280;58548;47.210;8.618;2023-02-02T06:18:54;94971.22;;;11.04;35.00
70902;BME280;58548;47.210;8.618;2023-02-02T06:21:22;95036.72;;;11.42;35.44
70902;BME280;58548;47.210;8.618;2023-02-02T06:23:50;95090.88;;;11.97;35.14
70902;BME280;58548;47.210;8.618;2023-02-02T06:26:16;95072.03;;;11.78;34.68
70902;BME280;58548;47.210;8.618;2023-02-02T06:28:50;94967.72;;;11.20;34.67
70902;BME280;58548;47.210;8.618;2023-02-02T06:31:19;95099.75;;;11.87;35.17
70902;BME280;58548;47.210;8.618;2023-02-02T06:33:47;95080.31;;;11.90;34.46
70902;BME280;58548;47.210;8.618;2023-02-02T06:36:15;94993.16;;;11.26;34.49
70902;BME280;58548;47.210;8.618;2023-02-02T06:38:41;95073.56;;;11.64;34.63
70902;BME280;58548;47.210;8.618;2023-02-02T06:41:07;95114.31;;;11.90;34.68
70902;BME280;58548;47.210;8.618;2023-02-02T06:43:35;95095.88;;;11.83;34.71
70902;BME280;58548;47.210;8.618;2023-02-02T06:46:01;95108.91;;;11.91;34.33
70902;BME280;58548;47.210;8.618;2023-02-02T06:48:29;95104.63;;;12.07;34.78
70902;BME280;58548;47.210;8.618;2023-02-02T06:50:59;95028.28;;;11.64;34.11
70902;BME280;58548;47.210;8.618;2023-02-02T06:53:28;95015.97;;;11.41;33.79
70902;BME280;58548;47.210;8.618;2023-02-02T06:56:04;95132.47;;;12.00;34.43
70902;BME280;58548;47.210;8.618;2023-02-02T06:58:36;95129.50;;;11.95;34.25
70902;BME280;58548;47.210;8.618;2023-02-02T07:01:07;95112.50;;;11.90;34.20
70902;BME280;58548;47.210;8.618;2023-02-02T07:03:36;95088.81;;;11.60;34.30
70902;BME280;58548;47.210;8.618;2023-02-02T07:06:25;94981.81;;;11.02;34.11
70902;BME280;58548;47.210;8.618;2023-02-02T07:08:55;94996.84;;;11.09;34.24
70902;BME280;58548;47.210;8.618;2023-02-02T07:11:23;95088.59;;;11.70;33.69
70902;BME280;58548;47.210;8.618;2023-02-02T07:13:49;95020.50;;;11.47;33.65
70902;BME280;58548;47.210;8.618;2023-02-02T07:16:17;95011.50;;;11.18;33.96
70902;BME280;58548;47.210;8.618;2023-02-02T07:18:43;95021.28;;;11.24;34.20
70902;BME280;58548;47.210;8.618;2023-02-02T07:21:21;95095.34;;;11.88;34.04
70902;BME280;58548;47.210;8.618;2023-02-02T07:23:51;94995.81;;;11.18;34.34
70902;BME280;58548;47.210;8.618;2023-02-02T07:26:20;95022.56;;;11.28;34.40
70902;BME280;58548;47.210;8.618;2023-02-02T07:28:46;95000.72;;;11.21;34.08
70902;BME280;58548;47.210;8.618;2023-02-02T07:33:46;95024.09;;;11.46;33.76
70902;BME280;58548;47.210;8.618;2023-02-02T07:36:20;95135.16;;;12.15;34.06
70902;BME280;58548;47.210;8.618;2023-02-02T07:38:49;95134.63;;;12.19;34.20
70902;BME280;58548;47.210;8.618;2023-02-02T07:41:16;95109.88;;;11.99;33.99
70902;BME280;58548;47.210;8.618;2023-02-02T07:43:42;95032.91;;;11.53;34.34
70902;BME280;58548;47.210;8.618;2023-02-02T07:46:09;95115.44;;;12.04;34.00
70902;BME280;58548;47.210;8.618;2023-02-02T07:48:39;95034.13;;;11.66;33.61
70902;BME280;58548;47.210;8.618;2023-02-02T07:51:13;95117.34;;;12.33;34.18
70902;BME280;58548;47.210;8.618;2023-02-02T07:53:44;95107.91;;;12.24;33.73
70902;BME280;58548;47.210;8.618;2023-02-02T07:56:17;95130.56;;;12.40;34.13
70902;BME280;58548;47.210;8.618;2023-02-02T07:58:44;94971.22;;;11.36;33.68
70902;BME280;58548;47.210;8.618;2023-02-02T08:01:14;95001.34;;;11.55;33.55
70902;BME280;58548;47.210;8.618;2023-02-02T08:03:42;95014.78;;;11.75;33.67
70902;BME280;58548;47.210;8.618;2023-02-02T08:08:40;95059.81;;;12.02;33.87
70902;BME280;58548;47.210;8.618;2023-02-02T08:11:11;95034.06;;;11.82;33.75
70902;BME280;58548;47.210;8.618;2023-02-02T08:13:41;95050.56;;;11.83;33.99
70902;BME280;58548;47.210;8.618;2023-02-02T08:16:10;95155.72;;;12.49;33.95
70902;BME280;58548;47.210;8.618;2023-02-02T08:18:37;95154.72;;;12.50;33.46
70902;BME280;58548;47.210;8.618;2023-02-02T08:21:06;95167.88;;;12.65;33.34
70902;BME280;58548;47.210;8.618;2023-02-02T08:23:38;95157.47;;;12.57;33.22
70902;BME280;58548;47.210;8.618;2023-02-02T08:26:25;95188.09;;;12.80;33.54
70902;BME280;58548;47.210;8.618;2023-02-02T08:28:57;95075.63;;;12.09;33.17
70902;BME280;58548;47.210;8.618;2023-02-02T08:31:31;95158.22;;;12.66;32.93
70902;BME280;58548;47.210;8.618;2023-02-02T08:33:57;95154.88;;;12.72;32.85
70902;BME280;58548;47.210;8.618;2023-02-02T08:36:27;95057.06;;;12.18;32.56
70902;BME280;58548;47.210;8.618;2023-02-02T08:38:58;95029.69;;;12.06;32.70
70902;BME280;58548;47.210;8.618;2023-02-02T08:41:24;95065.84;;;12.26;32.51
70902;BME280;58548;47.210;8.618;2023-02-02T08:43:55;95057.00;;;12.27;32.84
70902;BME280;58548;47.210;8.618;2023-02-02T08:46:28;95156.22;;;12.91;32.77
70902;BME280;58548;47.210;8.618;2023-02-02T08:48:56;95155.66;;;12.96;32.24
70902;BME280;58548;47.210;8.618;2023-02-02T08:51:22;95153.53;;;12.76;32.30
70902;BME280;58548;47.210;8.618;2023-02-02T08:53:47;95075.59;;;12.32;32.87
70902;BME280;58548;47.210;8.618;2023-02-02T08:56:20;95153.84;;;12.81;32.55
70902;BME280;58548;47.210;8.618;2023-02-02T08:58:55;95199.19;;;13.05;32.89
70902;BME280;58548;47.210;8.618;2023-02-02T09:01:27;95096.50;;;12.40;32.56
70902;BME280;58548;47.210;8.618;2023-02-02T09:03:59;95197.50;;;13.12;32.19
70902;BME280;58548;47.210;8.618;2023-02-02T09:06:34;95205.06;;;13.07;32.40
70902;BME280;58548;47.210;8.618;2023-02-02T09:09:03;95074.34;;;12.28;32.55
70902;BME280;58548;47.210;8.618;2023-02-02T09:11:32;95198.28;;;13.13;32.10
70902;BME280;58548;47.210;8.618;2023-02-02T09:14:01;95073.13;;;12.39;32.49
70902;BME280;58548;47.210;8.618;2023-02-02T09:16:32;95185.72;;;13.08;32.41
70902;BME280;58548;47.210;8.618;2023-02-02T09:19:03;95093.19;;;12.46;32.42
70902;BME280;58548;47.210;8.618;2023-02-02T09:21:31;95196.50;;;13.28;31.72
70902;BME280;58548;47.210;8.618;2023-02-02T09:24:12;95121.41;;;12.97;32.19
70902;BME280;58548;47.210;8.618;2023-02-02T09:26:47;95177.25;;;13.21;32.09
70902;BME280;58548;47.210;8.618;2023-02-02T09:29:16;95063.38;;;12.47;31.75
70902;BME280;58548;47.210;8.618;2023-02-02T09:31:45;95192.25;;;13.27;32.12
70902;BME280;58548;47.210;8.618;2023-02-02T09:34:14;95196.59;;;13.35;31.36
70902;BME280;58548;47.210;8.618;2023-02-02T09:36:41;95189.88;;;13.18;31.82
70902;BME280;58548;47.210;8.618;2023-02-02T09:39:10;95194.44;;;13.24;31.59
70902;BME280;58548;47.210;8.618;2023-02-02T09:47:15;95206.56;;;13.25;32.07
70902;BME280;58548;47.210;8.618;2023-02-02T10:01:02;95215.13;;;13.42;31.58
70902;BME280;58548;47.210;8.618;2023-02-02T10:03:36;95220.63;;;13.47;31.08
70902;BME280;58548;47.210;8.618;2023-02-02T10:06:28;95239.31;;;13.06;31.69
70902;BME280;58548;47.210;8.618;2023-02-02T10:11:40;95249.63;;;13.31;31.98
70902;BME280;58548;47.210;8.618;2023-02-02T10:14:32;95259.34;;;13.45;31.13
70902;BME280;58548;47.210;8.618;2023-02-02T10:17:20;95233.72;;;13.32;31.23
70902;BME280;58548;47.210;8.618;2023-02-02T10:19:51;95158.94;;;12.98;30.96
70902;BME280;58548;47.210;8.618;2023-02-02T10:22:26;95158.28;;;12.81;31.15
70902;BME280;58548;47.210;8.618;2023-02-02T10:24:56;95284.63;;;13.61;31.18
70902;BME280;58548;47.210;8.618;2023-02-02T10:27:36;95283.00;;;13.60;31.13
70902;BME280;58548;47.210;8.618;2023-02-02T10:30:17;95293.88;;;13.72;31.12
70902;BME280;58548;47.210;8.618;2023-02-02T10:32:50;95286.72;;;13.81;31.21
70902;BME280;58548;47.210;8.618;2023-02-02T10:35:35;95279.78;;;13.88;30.92
70902;BME280;58548;47.210;8.618;2023-02-02T10:49:00;95279.78;;;13.88;31.04
70902;BME280;58548;47.210;8.618;2023-02-02T10:51:36;95288.81;;;14.00;30.67
70902;BME280;58548;47.210;8.618;2023-02-02T10:54:18;95295.72;;;14.01;30.57
70902;BME280;58548;47.210;8.618;2023-02-02T10:56:54;95278.78;;;14.04;30.55
70902;BME280;58548;47.210;8.618;2023-02-02T10:59:31;95289.31;;;14.19;30.39
70902;BME280;58548;47.210;8.618;2023-02-02T11:02:00;95171.84;;;13.38;30.46
70902;BME280;58548;47.210;8.618;2023-02-02T11:04:28;95299.06;;;14.25;30.58
70902;BME280;58548;47.210;8.618;2023-02-02T11:07:12;95291.53;;;14.22;30.30
70902;BME280;58548;47.210;8.618;2023-02-02T11:09:47;95294.56;;;14.19;30.41
70902;BME280;58548;47.210;8.618;2023-02-02T11:12:27;95168.25;;;13.54;30.72
70902;BME280;58548;47.210;8.618;2023-02-02T11:15:00;95253.88;;;14.00;30.66
70902;BME280;58548;47.210;8.618;2023-02-02T11:17:34;95134.38;;;13.29;30.60
70902;BME280;58548;47.210;8.618;2023-02-02T11:20:31;95291.25;;;14.47;30.08
70902;BME280;58548;47.210;8.618;2023-02-02T11:23:04;95274.31;;;14.35;30.44
70902;BME280;58548;47.210;8.618;2023-02-02T11:25:32;95292.59;;;14.43;30.44
70902;BME280;58548;47.210;8.618;2023-02-02T11:28:17;95250.97;;;14.25;30.65
70902;BME280;58548;47.210;8.618;2023-02-02T11:30:48;95253.56;;;14.40;30.36
70902;BME280;58548;47.210;8.618;2023-02-02T11:33:35;95140.53;;;13.66;30.41
70902;BME280;58548;47.210;8.618;2023-02-02T11:36:16;95276.59;;;14.38;30.77
70902;BME280;58548;47.210;8.618;2023-02-02T11:38:42;95255.94;;;14.35;30.68
70902;BME280;58548;47.210;8.618;2023-02-02T11:41:10;95147.66;;;13.87;30.39
70902;BME280;58548;47.210;8.618;2023-02-02T11:43:52;95255.56;;;14.38;30.56
70902;BME280;58548;47.210;8.618;2023-02-02T11:46:28;95092.75;;;13.56;30.52
70902;BME280;58548;47.210;8.618;2023-02-02T11:49:14;95228.09;;;14.40;30.87
70902;BME280;58548;47.210;8.618;2023-02-02T11:51:44;95177.72;;;14.37;30.73
70902;BME280;58548;47.210;8.618;2023-02-02T11:54:35;95227.06;;;14.56;30.61
70902;BME280;58548;47.210;8.618;2023-02-02T11:57:07;95205.00;;;14.36;30.52
70902;BME280;58548;47.210;8.618;2023-02-02T11:59:44;95187.06;;;14.24;30.67
70902;BME280;58548;47.210;8.618;2023-02-02T12:04:51;95220.28;;;14.47;30.86
70902;BME280;58548;47.210;8.618;2023-02-02T12:07:30;95217.19;;;14.58;30.34
70902;BME280;58548;47.210;8.618;2023-02-02T12:10:12;95113.72;;;13.86;30.18
70902;BME280;58548;47.210;8.618;2023-02-02T12:15:10;95248.16;;;14.78;30.14
70902;BME280;58548;47.210;8.618;2023-02-02T12:17:45;95211.88;;;14.37;30.56
70902;BME280;58548;47.210;8.618;2023-02-02T12:23:04;95238.56;;;14.55;30.68
70902;BME280;58548;47.210;8.618;2023-02-02T12:28:43;95225.13;;;14.28;30.96
70902;BME280;58548;47.210;8.618;2023-02-02T12:36:44;95213.81;;;14.86;30.40
70902;BME280;58548;47.210;8.618;2023-02-02T12:39:24;95205.56;;;14.89;30.38
70902;BME280;58548;47.210;8.618;2023-02-02T12:47:27;95224.34;;;15.36;30.00
70902;BME280;58548;47.210;8.618;2023-02-02T12:59:36;95199.56;;;15.24;29.59
70902;BME280;58548;47.210;8.618;2023-02-02T13:12:35;95061.59;;;14.26;29.46
70902;BME280;58548;47.210;8.618;2023-02-02T13:15:16;95071.41;;;14.39;29.25
70902;BME280;58548;47.210;8.618;2023-02-02T13:17:53;95176.81;;;15.10;29.34
70902;BME280;58548;47.210;8.618;2023-02-02T13:23:05;95184.88;;;15.08;29.41
70902;BME280;58548;47.210;8.618;2023-02-02T13:28:39;95186.13;;;15.12;29.37
70902;BME280;58548;47.210;8.618;2023-02-02T13:31:21;95184.03;;;15.01;29.69
70902;BME280;58548;47.210;8.618;2023-02-02T13:34:40;95190.78;;;14.88;29.63
70902;BME280;58548;47.210;8.618;2023-02-02T13:37:05;95076.50;;;14.19;29.47
70902;BME280;58548;47.210;8.618;2023-02-02T13:39:37;95213.44;;;14.89;29.75
70902;BME280;58548;47.210;8.618;2023-02-02T13:42:31;95119.59;;;14.46;29.79
70902;BME280;58548;47.210;8.618;2023-02-02T13:45:08;95067.47;;;14.07;29.89
70902;BME280;58548;47.210;8.618;2023-02-02T13:47:51;95177.50;;;14.53;30.04
70902;BME280;58548;47.210;8.618;2023-02-02T13:50:26;95203.75;;;14.90;29.93
70902;BME280;58548;47.210;8.618;2023-02-02T13:58:49;95060.59;;;14.06;30.17
70902;BME280;58548;47.210;8.618;2023-02-02T14:01:21;95211.53;;;15.05;29.99
70902;BME280;58548;47.210;8.618;2023-02-02T14:03:59;95214.81;;;15.07;29.77
70902;BME280;58548;47.210;8.618;2023-02-02T14:06:26;95109.91;;;14.47;29.91
70902;BME280;58548;47.210;8.618;2023-02-02T14:08:56;95210.19;;;14.87;29.86
70902;BME280;58548;47.210;8.618;2023-02-02T14:11:28;95235.44;;;15.03;30.17
70902;BME280;58548;47.210;8.618;2023-02-02T14:14:27;95222.78;;;14.92;29.96
70902;BME280;58548;47.210;8.618;2023-02-02T14:17:00;95209.66;;;14.70;30.11
70902;BME280;58548;47.210;8.618;2023-02-02T14:19:53;95232.19;;;14.65;30.49
70902;BME280;58548;47.210;8.618;2023-02-02T14:28:06;95253.50;;;14.70;30.41
70902;BME280;58548;47.210;8.618;2023-02-02T14:30:37;95252.34;;;14.57;30.54
70902;BME280;58548;47.210;8.618;2023-02-02T14:41:17;95263.66;;;14.58;30.84
70902;BME280;58548;47.210;8.618;2023-02-02T14:44:07;95163.53;;;13.94;31.05
70902;BME280;58548;47.210;8.618;2023-02-02T14:46:34;95271.69;;;14.50;31.01
70902;BME280;58548;47.210;8.618;2023-02-02T14:51:33;95064.19;;;13.31;31.01
70902;BME280;58548;47.210;8.618;2023-02-02T14:54:20;95155.50;;;14.02;30.80
70902;BME280;58548;47.210;8.618;2023-02-02T14:56:59;95267.97;;;14.81;30.79
70902;BME280;58548;47.210;8.618;2023-02-02T14:59:31;95275.94;;;14.87;30.84
70902;BME280;58548;47.210;8.618;2023-02-02T15:02:18;95276.25;;;14.99;30.39
70902;BME280;58548;47.210;8.618;2023-02-02T15:04:47;95279.72;;;15.00;30.43
70902;BME280;58548;47.210;8.618;2023-02-02T15:09:50;95304.50;;;14.90;30.55
70902;BME280;58548;47.210;8.618;2023-02-02T15:12:35;95312.94;;;14.86;30.63
70902;BME280;58548;47.210;8.618;2023-02-02T15:15:26;95299.03;;;14.70;30.77
70902;BME280;58548;47.210;8.618;2023-02-02T15:18:16;95306.44;;;14.67;30.72
70902;BME280;58548;47.210;8.618;2023-02-02T15:20:49;95263.28;;;14.24;31.20
70902;BME280;58548;47.210;8.618;2023-02-02T15:23:33;95285.84;;;14.33;31.05
70902;BME280;58548;47.210;8.618;2023-02-02T15:26:27;95323.06;;;14.52;31.16
70902;BME280;58548;47.210;8.618;2023-02-02T15:29:30;95312.81;;;14.42;31.00
70902;BME280;58548;47.210;8.618;2023-02-02T15:31:53;95328.16;;;14.39;31.43
70902;BME280;58548;47.210;8.618;2023-02-02T15:34:32;95179.47;;;13.48;31.33
70902;BME280;58548;47.210;8.618;2023-02-02T15:37:07;95332.28;;;14.48;31.14